sensor_id;sensor_type;location;lat;lon;timestamp;temperature;humidity
8676;DHT22;4375;52.486;13.424;2023-07-09T00:02:20;21.80;88.20
8676;DHT22;4375;52.486;13.424;2023-07-09T00:04:46;21.80;88.60
8676;DHT22;4375;52.486;13.424;2023-07-09T00:09:41;21.80;89.10
8676;DHT22;4375;52.486;13.424;2023-07-09T00:12:13;21.80;89.40
8676;DHT22;4375;52.486;13.424;2023-07-09T00:14:38;21.80;89.60
8676;DHT22;4375;52.486;13.424;2023-07-09T00:17:11;21.70;90.00
8676;DHT22;4375;52.486;13.424;2023-07-09T00:19:37;21.70;90.10
8676;DHT22;4375;52.486;13.424;2023-07-09T00:22:14;21.60;90.40
8676;DHT22;4375;52.486;13.424;2023-07-09T00:24:42;21.70;90.50
8676;DHT22;4375;52.486;13.424;2023-07-09T00:27:13;21.60;90.60
8676;DHT22;4375;52.486;13.424;2023-07-09T00:29:40;21.50;90.80
8676;DHT22;4375;52.486;13.424;2023-07-09T00:32:17;21.50;91.00
8676;DHT22;4375;52.486;13.424;2023-07-09T00:34:46;21.60;91.20
8676;DHT22;4375;52.486;13.424;2023-07-09T00:37:16;21.50;91.30
8676;DHT22;4375;52.486;13.424;2023-07-09T00:39:43;21.60;91.60
8676;DHT22;4375;52.486;13.424;2023-07-09T00:42:16;21.60;91.70
8676;DHT22;4375;52.486;13.424;2023-07-09T00:44:54;21.50;91.80
8676;DHT22;4375;52.486;13.424;2023-07-09T00:50:15;21.60;92.10
8676;DHT22;4375;52.486;13.424;2023-07-09T00:53:01;21.60;92.10
8676;DHT22;4375;52.486;13.424;2023-07-09T00:55:34;21.50;92.40
8676;DHT22;4375;52.486;13.424;2023-07-09T00:58:06;21.50;92.40
8676;DHT22;4375;52.486;13.424;2023-07-09T01:00:40;21.50;92.60
8676;DHT22;4375;52.486;13.424;2023-07-09T01:03:16;21.50;92.90
8676;DHT22;4375;52.486;13.424;2023-07-09T01:05:45;21.40;93.10
8676;DHT22;4375;52.486;13.424;2023-07-09T01:08:17;21.40;93.30
8676;DHT22;4375;52.486;13.424;2023-07-09T01:10:44;21.30;93.60
8676;DHT22;4375;52.486;13.424;2023-07-09T01:13:10;21.30;94.00
8676;DHT22;4375;52.486;13.424;2023-07-09T01:15:36;21.30;94.00
8676;DHT22;4375;52.486;13.424;2023-07-09T01:18:03;21.30;94.10
8676;DHT22;4375;52.486;13.424;2023-07-09T01:20:29;21.30;94.20
8676;DHT22;4375;52.486;13.424;2023-07-09T01:22:56;21.20;94.40
8676;DHT22;4375;52.486;13.424;2023-07-09T01:25:23;21.10;94.70
8676;DHT22;4375;52.486;13.424;2023-07-09T01:27:49;21.10;94.90
8676;DHT22;4375;52.486;13.424;2023-07-09T01:30:22;21.00;95.10
8676;DHT22;4375;52.486;13.424;2023-07-09T01:32:49;21.10;95.40
8676;DHT22;4375;52.486;13.424;2023-07-09T01:35:16;21.00;95.60
8676;DHT22;4375;52.486;13.424;2023-07-09T01:37:44;20.90;95.80
8676;DHT22;4375;52.486;13.424;2023-07-09T01:40:12;20.80;96.10
8676;DHT22;4375;52.486;13.424;2023-07-09T01:42:38;20.90;96.20
8676;DHT22;4375;52.486;13.424;2023-07-09T01:45:05;20.90;96.40
8676;DHT22;4375;52.486;13.424;2023-07-09T01:47:31;20.90;96.50
8676;DHT22;4375;52.486;13.424;2023-07-09T01:49:57;20.90;96.80
8676;DHT22;4375;52.486;13.424;2023-07-09T01:52:28;20.80;97.00
8676;DHT22;4375;52.486;13.424;2023-07-09T01:54:55;20.90;97.10
8676;DHT22;4375;52.486;13.424;2023-07-09T01:57:26;20.80;97.40
8676;DHT22;4375;52.486;13.424;2023-07-09T01:59:59;20.80;97.80
8676;DHT22;4375;52.486;13.424;2023-07-09T02:02:26;20.70;97.90
8676;DHT22;4375;52.486;13.424;2023-07-09T02:04:54;20.60;98.30
8676;DHT22;4375;52.486;13.424;2023-07-09T02:07:22;20.60;98.60
8676;DHT22;4375;52.486;13.424;2023-07-09T02:09:49;20.70;98.70
8676;DHT22;4375;52.486;13.424;2023-07-09T02:12:16;20.50;99.10
8676;DHT22;4375;52.486;13.424;2023-07-09T02:14:43;20.50;99.50
8676;DHT22;4375;52.486;13.424;2023-07-09T02:17:10;20.50;99.90
8676;DHT22;4375;52.486;13.424;2023-07-09T02:19:36;20.40;99.90
8676;DHT22;4375;52.486;13.424;2023-07-09T02:22:02;20.40;99.90
8676;DHT22;4375;52.486;13.424;2023-07-09T02:24:27;20.50;99.90
8676;DHT22;4375;52.486;13.424;2023-07-09T02:26:57;20.40;99.90
8676;DHT22;4375;52.486;13.424;2023-07-09T02:29:24;20.40;99.90
8676;DHT22;4375;52.486;13.424;2023-07-09T02:31:51;20.40;99.90
8676;DHT22;4375;52.486;13.424;2023-07-09T02:34:18;20.40;99.90
8676;DHT22;4375;52.486;13.424;2023-07-09T02:36:44;20.40;99.90
8676;DHT22;4375;52.486;13.424;2023-07-09T02:39:11;20.40;99.90
8676;DHT22;4375;52.486;13.424;2023-07-09T02:41:38;20.30;99.90
8676;DHT22;4375;52.486;13.424;2023-07-09T02:44:04;20.30;99.90
8676;DHT22;4375;52.486;13.424;2023-07-09T02:46:30;20.20;99.90
8676;DHT22;4375;52.486;13.424;2023-07-09T02:48:55;20.20;99.90
8676;DHT22;4375;52.486;13.424;2023-07-09T02:51:22;20.20;99.90
8676;DHT22;4375;52.486;13.424;2023-07-09T02:53:48;20.30;99.90
8676;DHT22;4375;52.486;13.424;2023-07-09T02:56:13;20.10;99.90
8676;DHT22;4375;52.486;13.424;2023-07-09T02:58:39;20.10;99.90
8676;DHT22;4375;52.486;13.424;2023-07-09T03:01:05;20.20;99.90
8676;DHT22;4375;52.486;13.424;2023-07-09T03:03:31;20.20;99.90
8676;DHT22;4375;52.486;13.424;2023-07-09T03:05:56;20.10;99.90
8676;DHT22;4375;52.486;13.424;2023-07-09T03:08:22;20.10;99.90
8676;DHT22;4375;52.486;13.424;2023-07-09T03:10:48;20.00;99.90
8676;DHT22;4375;52.486;13.424;2023-07-09T03:13:14;19.90;99.90
8676;DHT22;4375;52.486;13.424;2023-07-09T03:15:39;20.00;99.90
8676;DHT22;4375;52.486;13.424;2023-07-09T03:18:05;20.00;99.90
8676;DHT22;4375;52.486;13.424;2023-07-09T03:20:30;20.20;99.90
8676;DHT22;4375;52.486;13.424;2023-07-09T03:22:57;20.20;99.90
8676;DHT22;4375;52.486;13.424;2023-07-09T03:25:22;20.20;99.90
8676;DHT22;4375;52.486;13.424;2023-07-09T03:27:48;20.20;99.90
8676;DHT22;4375;52.486;13.424;2023-07-09T03:30:14;20.10;99.90
8676;DHT22;4375;52.486;13.424;2023-07-09T03:32:40;20.00;99.90
8676;DHT22;4375;52.486;13.424;2023-07-09T03:35:05;20.20;99.90
8676;DHT22;4375;52.486;13.424;2023-07-09T03:37:31;20.20;99.90
8676;DHT22;4375;52.486;13.424;2023-07-09T03:39:57;20.10;99.90
8676;DHT22;4375;52.486;13.424;2023-07-09T03:42:22;20.10;99.90
8676;DHT22;4375;52.486;13.424;2023-07-09T03:44:48;20.20;99.90
8676;DHT22;4375;52.486;13.424;2023-07-09T03:47:14;20.20;99.90
8676;DHT22;4375;52.486;13.424;2023-07-09T03:49:40;20.10;99.90
8676;DHT22;4375;52.486;13.424;2023-07-09T03:52:07;20.20;99.90
8676;DHT22;4375;52.486;13.424;2023-07-09T03:54:33;20.30;99.90
8676;DHT22;4375;52.486;13.424;2023-07-09T03:56:58;20.30;99.90
8676;DHT22;4375;52.486;13.424;2023-07-09T03:59:24;20.30;99.90
8676;DHT22;4375;52.486;13.424;2023-07-09T04:01:50;20.40;99.90
8676;DHT22;4375;52.486;13.424;2023-07-09T04:04:15;20.50;99.90
8676;DHT22;4375;52.486;13.424;2023-07-09T04:06:46;20.50;99.90
8676;DHT22;4375;52.486;13.424;2023-07-09T04:09:12;20.50;99.90
8676;DHT22;4375;52.486;13.424;2023-07-09T04:11:38;20.50;99.90
8676;DHT22;4375;52.486;13.424;2023-07-09T04:14:03;20.50;99.90
8676;DHT22;4375;52.486;13.424;2023-07-09T04:16:29;20.50;99.90
8676;DHT22;4375;52.486;13.424;2023-07-09T04:18:55;20.50;99.90
8676;DHT22;4375;52.486;13.424;2023-07-09T04:21:20;20.60;99.90
8676;DHT22;4375;52.486;13.424;2023-07-09T04:23:46;20.70;99.90
8676;DHT22;4375;52.486;13.424;2023-07-09T04:26:13;20.70;99.90
8676;DHT22;4375;52.486;13.424;2023-07-09T04:28:39;20.80;99.90
8676;DHT22;4375;52.486;13.424;2023-07-09T04:31:05;20.80;99.90
8676;DHT22;4375;52.486;13.424;2023-07-09T04:33:30;20.70;99.90
8676;DHT22;4375;52.486;13.424;2023-07-09T04:35:57;20.70;99.90
8676;DHT22;4375;52.486;13.424;2023-07-09T04:38:22;20.70;99.90
8676;DHT22;4375;52.486;13.424;2023-07-09T04:40:48;20.80;99.90
8676;DHT22;4375;52.486;13.424;2023-07-09T04:43:14;20.90;99.90
8676;DHT22;4375;52.486;13.424;2023-07-09T04:45:40;20.90;99.90
8676;DHT22;4375;52.486;13.424;2023-07-09T04:48:06;21.00;99.90
8676;DHT22;4375;52.486;13.424;2023-07-09T04:50:32;21.00;99.90
8676;DHT22;4375;52.486;13.424;2023-07-09T04:52:59;21.00;99.90
8676;DHT22;4375;52.486;13.424;2023-07-09T04:55:25;21.10;99.90
8676;DHT22;4375;52.486;13.424;2023-07-09T04:57:52;21.10;99.90
8676;DHT22;4375;52.486;13.424;2023-07-09T05:00:18;21.10;99.90
8676;DHT22;4375;52.486;13.424;2023-07-09T05:02:44;21.20;99.90
8676;DHT22;4375;52.486;13.424;2023-07-09T05:05:09;21.20;99.90
8676;DHT22;4375;52.486;13.424;2023-07-09T05:07:37;21.30;99.90
8676;DHT22;4375;52.486;13.424;2023-07-09T05:10:03;21.30;99.90
8676;DHT22;4375;52.486;13.424;2023-07-09T05:12:29;21.40;99.90
8676;DHT22;4375;52.486;13.424;2023-07-09T05:14:55;21.40;99.90
8676;DHT22;4375;52.486;13.424;2023-07-09T05:17:22;21.40;99.90
8676;DHT22;4375;52.486;13.424;2023-07-09T05:19:49;21.50;99.90
8676;DHT22;4375;52.486;13.424;2023-07-09T05:22:15;21.60;99.90
8676;DHT22;4375;52.486;13.424;2023-07-09T05:24:41;21.60;99.90
8676;DHT22;4375;52.486;13.424;2023-07-09T05:27:07;21.60;99.90
8676;DHT22;4375;52.486;13.424;2023-07-09T05:29:32;21.60;99.90
8676;DHT22;4375;52.486;13.424;2023-07-09T05:31:58;21.60;99.90
8676;DHT22;4375;52.486;13.424;2023-07-09T05:34:24;21.60;99.90
8676;DHT22;4375;52.486;13.424;2023-07-09T05:36:49;21.60;99.90
8676;DHT22;4375;52.486;13.424;2023-07-09T05:39:15;21.60;99.90
8676;DHT22;4375;52.486;13.424;2023-07-09T05:41:41;21.90;99.90
8676;DHT22;4375;52.486;13.424;2023-07-09T05:44:07;21.90;99.90
8676;DHT22;4375;52.486;13.424;2023-07-09T05:46:36;21.90;99.90
8676;DHT22;4375;52.486;13.424;2023-07-09T05:49:04;22.00;99.90
8676;DHT22;4375;52.486;13.424;2023-07-09T05:51:30;22.10;99.90
8676;DHT22;4375;52.486;13.424;2023-07-09T05:53:56;22.20;99.90
8676;DHT22;4375;52.486;13.424;2023-07-09T05:56:22;22.20;99.90
8676;DHT22;4375;52.486;13.424;2023-07-09T05:58:47;22.30;99.90
8676;DHT22;4375;52.486;13.424;2023-07-09T06:01:13;22.40;99.90
8676;DHT22;4375;52.486;13.424;2023-07-09T06:03:39;22.40;99.90
8676;DHT22;4375;52.486;13.424;2023-07-09T06:06:05;22.50;99.90
8676;DHT22;4375;52.486;13.424;2023-07-09T06:08:32;22.50;99.90
8676;DHT22;4375;52.486;13.424;2023-07-09T06:11:00;22.60;99.90
8676;DHT22;4375;52.486;13.424;2023-07-09T06:13:28;22.60;99.90
8676;DHT22;4375;52.486;13.424;2023-07-09T06:15:56;22.70;99.90
8676;DHT22;4375;52.486;13.424;2023-07-09T06:18:23;22.80;99.90
8676;DHT22;4375;52.486;13.424;2023-07-09T06:20:55;22.90;99.90
8676;DHT22;4375;52.486;13.424;2023-07-09T06:23:21;23.00;99.90
8676;DHT22;4375;52.486;13.424;2023-07-09T06:25:47;23.00;99.90
8676;DHT22;4375;52.486;13.424;2023-07-09T06:28:15;23.10;99.90
8676;DHT22;4375;52.486;13.424;2023-07-09T06:30:41;23.20;99.90
8676;DHT22;4375;52.486;13.424;2023-07-09T06:33:07;23.30;99.90
8676;DHT22;4375;52.486;13.424;2023-07-09T06:35:32;23.40;99.90
8676;DHT22;4375;52.486;13.424;2023-07-09T06:37:58;23.40;99.90
8676;DHT22;4375;52.486;13.424;2023-07-09T06:40:23;23.50;99.90
8676;DHT22;4375;52.486;13.424;2023-07-09T06:42:50;23.50;99.90
8676;DHT22;4375;52.486;13.424;2023-07-09T06:45:16;23.70;99.90
8676;DHT22;4375;52.486;13.424;2023-07-09T06:47:42;23.90;99.90
8676;DHT22;4375;52.486;13.424;2023-07-09T06:50:08;24.00;99.90
8676;DHT22;4375;52.486;13.424;2023-07-09T06:52:34;23.90;99.90
8676;DHT22;4375;52.486;13.424;2023-07-09T06:54:59;24.00;99.90
8676;DHT22;4375;52.486;13.424;2023-07-09T06:57:25;24.10;99.90
8676;DHT22;4375;52.486;13.424;2023-07-09T06:59:50;24.20;99.90
8676;DHT22;4375;52.486;13.424;2023-07-09T07:02:16;24.30;99.90
8676;DHT22;4375;52.486;13.424;2023-07-09T07:04:41;24.30;99.90
8676;DHT22;4375;52.486;13.424;2023-07-09T07:07:07;24.40;99.90
8676;DHT22;4375;52.486;13.424;2023-07-09T07:09:33;24.50;99.90
8676;DHT22;4375;52.486;13.424;2023-07-09T07:11:58;24.60;99.90
8676;DHT22;4375;52.486;13.424;2023-07-09T07:14:24;24.70;99.60
8676;DHT22;4375;52.486;13.424;2023-07-09T07:16:50;24.80;99.40
8676;DHT22;4375;52.486;13.424;2023-07-09T07:19:15;25.10;99.60
8676;DHT22;4375;52.486;13.424;2023-07-09T07:21:41;26.40;98.40
8676;DHT22;4375;52.486;13.424;2023-07-09T07:24:07;28.00;95.70
8676;DHT22;4375;52.486;13.424;2023-07-09T07:26:32;29.60;93.20
8676;DHT22;4375;52.486;13.424;2023-07-09T07:28:58;29.30;91.90
8676;DHT22;4375;52.486;13.424;2023-07-09T07:31:23;29.00;91.30
8676;DHT22;4375;52.486;13.424;2023-07-09T07:33:50;28.70;92.00
8676;DHT22;4375;52.486;13.424;2023-07-09T07:36:16;28.90;92.00
8676;DHT22;4375;52.486;13.424;2023-07-09T07:38:42;30.60;89.60
8676;DHT22;4375;52.486;13.424;2023-07-09T07:41:08;31.40;86.10
8676;DHT22;4375;52.486;13.424;2023-07-09T07:43:33;33.20;83.10
8676;DHT22;4375;52.486;13.424;2023-07-09T07:45:59;34.90;78.50
8676;DHT22;4375;52.486;13.424;2023-07-09T07:48:24;33.40;76.40
8676;DHT22;4375;52.486;13.424;2023-07-09T07:50:50;33.90;73.80
8676;DHT22;4375;52.486;13.424;2023-07-09T07:53:16;34.70;73.10
8676;DHT22;4375;52.486;13.424;2023-07-09T07:55:42;35.20;68.80
8676;DHT22;4375;52.486;13.424;2023-07-09T07:58:12;36.00;68.60
8676;DHT22;4375;52.486;13.424;2023-07-09T08:00:39;35.30;66.30
8676;DHT22;4375;52.486;13.424;2023-07-09T08:03:04;35.10;67.20
8676;DHT22;4375;52.486;13.424;2023-07-09T08:05:30;35.30;65.80
8676;DHT22;4375;52.486;13.424;2023-07-09T08:07:56;35.80;65.20
8676;DHT22;4375;52.486;13.424;2023-07-09T08:10:21;36.20;63.70
8676;DHT22;4375;52.486;13.424;2023-07-09T08:12:47;36.20;63.00
8676;DHT22;4375;52.486;13.424;2023-07-09T08:15:13;36.20;61.80
8676;DHT22;4375;52.486;13.424;2023-07-09T08:17:39;35.90;63.70
8676;DHT22;4375;52.486;13.424;2023-07-09T08:20:05;36.30;62.20
8676;DHT22;4375;52.486;13.424;2023-07-09T08:22:31;37.10;59.60
8676;DHT22;4375;52.486;13.424;2023-07-09T08:24:57;36.70;59.10
8676;DHT22;4375;52.486;13.424;2023-07-09T08:27:22;35.80;59.20
8676;DHT22;4375;52.486;13.424;2023-07-09T08:29:48;36.40;59.60
8676;DHT22;4375;52.486;13.424;2023-07-09T08:32:14;36.80;59.80
8676;DHT22;4375;52.486;13.424;2023-07-09T08:34:41;37.50;58.50
8676;DHT22;4375;52.486;13.424;2023-07-09T08:37:08;37.60;57.30
8676;DHT22;4375;52.486;13.424;2023-07-09T08:39:34;37.10;56.90
8676;DHT22;4375;52.486;13.424;2023-07-09T08:42:02;36.20;58.50
8676;DHT22;4375;52.486;13.424;2023-07-09T08:47:43;35.30;58.90
8676;DHT22;4375;52.486;13.424;2023-07-09T08:50:32;36.50;57.70
8676;DHT22;4375;52.486;13.424;2023-07-09T08:53:01;37.30;58.30
8676;DHT22;4375;52.486;13.424;2023-07-09T08:55:31;38.30;56.80
8676;DHT22;4375;52.486;13.424;2023-07-09T08:58:12;38.70;55.60
8676;DHT22;4375;52.486;13.424;2023-07-09T09:03:40;34.00;58.50
8676;DHT22;4375;52.486;13.424;2023-07-09T09:06:15;35.40;58.60
8676;DHT22;4375;52.486;13.424;2023-07-09T09:14:12;36.60;54.70
8676;DHT22;4375;52.486;13.424;2023-07-09T09:16:44;37.50;53.80
8676;DHT22;4375;52.486;13.424;2023-07-09T09:21:49;38.40;52.90
8676;DHT22;4375;52.486;13.424;2023-07-09T09:24:33;38.40;52.60
8676;DHT22;4375;52.486;13.424;2023-07-09T09:27:00;37.70;52.90
8676;DHT22;4375;52.486;13.424;2023-07-09T09:29:26;35.60;53.30
8676;DHT22;4375;52.486;13.424;2023-07-09T09:31:55;35.20;54.30
8676;DHT22;4375;52.486;13.424;2023-07-09T09:34:25;34.00;54.10
8676;DHT22;4375;52.486;13.424;2023-07-09T09:36:51;34.20;54.70
8676;DHT22;4375;52.486;13.424;2023-07-09T09:39:17;34.20;54.90
8676;DHT22;4375;52.486;13.424;2023-07-09T09:41:44;35.20;53.70
8676;DHT22;4375;52.486;13.424;2023-07-09T09:44:24;34.20;51.70
8676;DHT22;4375;52.486;13.424;2023-07-09T09:46:50;35.60;50.10
8676;DHT22;4375;52.486;13.424;2023-07-09T09:49:16;35.60;48.40
8676;DHT22;4375;52.486;13.424;2023-07-09T09:51:45;35.40;49.60
8676;DHT22;4375;52.486;13.424;2023-07-09T09:54:26;34.20;49.10
8676;DHT22;4375;52.486;13.424;2023-07-09T09:56:53;33.80;50.10
8676;DHT22;4375;52.486;13.424;2023-07-09T09:59:32;34.30;48.10
8676;DHT22;4375;52.486;13.424;2023-07-09T10:02:00;34.60;48.40
8676;DHT22;4375;52.486;13.424;2023-07-09T10:04:27;34.30;51.20
8676;DHT22;4375;52.486;13.424;2023-07-09T10:06:56;32.60;53.10
8676;DHT22;4375;52.486;13.424;2023-07-09T10:21:22;34.20;53.10
8676;DHT22;4375;52.486;13.424;2023-07-09T10:27:09;34.70;52.20
8676;DHT22;4375;52.486;13.424;2023-07-09T10:40:41;33.40;54.10
8676;DHT22;4375;52.486;13.424;2023-07-09T10:43:15;33.70;54.30
8676;DHT22;4375;52.486;13.424;2023-07-09T10:45:46;32.70;54.20
8676;DHT22;4375;52.486;13.424;2023-07-09T10:48:57;33.20;54.40
8676;DHT22;4375;52.486;13.424;2023-07-09T10:54:34;33.40;54.30
8676;DHT22;4375;52.486;13.424;2023-07-09T10:57:16;33.40;54.20
8676;DHT22;4375;52.486;13.424;2023-07-09T10:59:43;33.30;55.10
8676;DHT22;4375;52.486;13.424;2023-07-09T11:02:25;33.40;54.80
8676;DHT22;4375;52.486;13.424;2023-07-09T11:04:55;32.70;54.90
8676;DHT22;4375;52.486;13.424;2023-07-09T11:07:36;32.80;55.50
8676;DHT22;4375;52.486;13.424;2023-07-09T11:10:29;32.80;54.80
8676;DHT22;4375;52.486;13.424;2023-07-09T11:13:07;32.80;55.20
8676;DHT22;4375;52.486;13.424;2023-07-09T11:15:37;32.70;54.80
8676;DHT22;4375;52.486;13.424;2023-07-09T11:18:07;32.30;55.50
8676;DHT22;4375;52.486;13.424;2023-07-09T11:20:42;32.60;55.80
8676;DHT22;4375;52.486;13.424;2023-07-09T11:23:19;32.80;55.30
8676;DHT22;4375;52.486;13.424;2023-07-09T11:25:48;32.50;55.60
8676;DHT22;4375;52.486;13.424;2023-07-09T11:28:15;32.50;56.50
8676;DHT22;4375;52.486;13.424;2023-07-09T11:30:49;32.80;56.80
8676;DHT22;4375;52.486;13.424;2023-07-09T11:33:20;32.90;56.80
8676;DHT22;4375;52.486;13.424;2023-07-09T11:35:54;32.70;56.70
8676;DHT22;4375;52.486;13.424;2023-07-09T11:38:42;32.40;56.80
8676;DHT22;4375;52.486;13.424;2023-07-09T11:44:18;32.60;56.00
8676;DHT22;4375;52.486;13.424;2023-07-09T11:52:20;31.90;56.40
8676;DHT22;4375;52.486;13.424;2023-07-09T11:54:49;32.00;56.00
8676;DHT22;4375;52.486;13.424;2023-07-09T11:57:17;31.50;56.10
8676;DHT22;4375;52.486;13.424;2023-07-09T11:59:43;31.40;56.60
8676;DHT22;4375;52.486;13.424;2023-07-09T12:02:20;31.40;56.70
8676;DHT22;4375;52.486;13.424;2023-07-09T12:04:50;31.00;57.50
8676;DHT22;4375;52.486;13.424;2023-07-09T12:07:20;31.30;57.60
8676;DHT22;4375;52.486;13.424;2023-07-09T12:09:49;31.50;57.20
8676;DHT22;4375;52.486;13.424;2023-07-09T12:12:24;31.30;56.90
8676;DHT22;4375;52.486;13.424;2023-07-09T12:14:50;31.50;58.00
8676;DHT22;4375;52.486;13.424;2023-07-09T12:17:16;31.60;57.30
8676;DHT22;4375;52.486;13.424;2023-07-09T12:19:42;31.50;57.00
8676;DHT22;4375;52.486;13.424;2023-07-09T12:22:26;31.60;56.90
8676;DHT22;4375;52.486;13.424;2023-07-09T12:24:52;31.50;56.70
8676;DHT22;4375;52.486;13.424;2023-07-09T12:27:25;31.30;56.30
8676;DHT22;4375;52.486;13.424;2023-07-09T12:29:55;31.20;56.50
8676;DHT22;4375;52.486;13.424;2023-07-09T12:32:21;31.10;56.80
8676;DHT22;4375;52.486;13.424;2023-07-09T12:34:53;31.20;57.20
8676;DHT22;4375;52.486;13.424;2023-07-09T12:37:20;31.10;57.40
8676;DHT22;4375;52.486;13.424;2023-07-09T12:39:49;31.00;57.40
8676;DHT22;4375;52.486;13.424;2023-07-09T12:42:31;31.10;57.40
8676;DHT22;4375;52.486;13.424;2023-07-09T12:44:58;31.20;57.80
8676;DHT22;4375;52.486;13.424;2023-07-09T12:47:24;31.00;57.60
8676;DHT22;4375;52.486;13.424;2023-07-09T12:49:51;30.90;57.40
8676;DHT22;4375;52.486;13.424;2023-07-09T12:52:22;31.00;57.20
8676;DHT22;4375;52.486;13.424;2023-07-09T12:55:00;30.90;57.70
8676;DHT22;4375;52.486;13.424;2023-07-09T12:57:27;30.80;57.20
8676;DHT22;4375;52.486;13.424;2023-07-09T12:59:54;30.90;56.90
8676;DHT22;4375;52.486;13.424;2023-07-09T13:04:48;30.80;57.20
8676;DHT22;4375;52.486;13.424;2023-07-09T13:09:53;30.90;58.00
8676;DHT22;4375;52.486;13.424;2023-07-09T13:12:20;30.90;57.40
8676;DHT22;4375;52.486;13.424;2023-07-09T13:14:55;30.90;57.60
8676;DHT22;4375;52.486;13.424;2023-07-09T13:17:21;30.90;58.40
8676;DHT22;4375;52.486;13.424;2023-07-09T13:19:46;30.90;57.10
8676;DHT22;4375;52.486;13.424;2023-07-09T13:22:14;30.70;56.80
8676;DHT22;4375;52.486;13.424;2023-07-09T13:24:40;30.70;57.10
8676;DHT22;4375;52.486;13.424;2023-07-09T13:27:11;30.90;57.10
8676;DHT22;4375;52.486;13.424;2023-07-09T13:29:37;30.90;57.20
8676;DHT22;4375;52.486;13.424;2023-07-09T13:32:09;30.80;57.40
8676;DHT22;4375;52.486;13.424;2023-07-09T13:34:35;30.70;57.40
8676;DHT22;4375;52.486;13.424;2023-07-09T13:37:01;30.80;57.60
8676;DHT22;4375;52.486;13.424;2023-07-09T13:39:27;30.90;57.50
8676;DHT22;4375;52.486;13.424;2023-07-09T13:41:53;30.90;56.90
8676;DHT22;4375;52.486;13.424;2023-07-09T13:44:24;30.70;57.10
8676;DHT22;4375;52.486;13.424;2023-07-09T13:46:53;30.80;57.20
8676;DHT22;4375;52.486;13.424;2023-07-09T13:49:21;30.90;57.10
8676;DHT22;4375;52.486;13.424;2023-07-09T13:51:49;30.90;57.20
8676;DHT22;4375;52.486;13.424;2023-07-09T13:54:21;30.90;57.60
8676;DHT22;4375;52.486;13.424;2023-07-09T13:56:48;30.90;57.00
8676;DHT22;4375;52.486;13.424;2023-07-09T13:59:21;30.90;56.90
8676;DHT22;4375;52.486;13.424;2023-07-09T14:01:49;30.90;57.00
8676;DHT22;4375;52.486;13.424;2023-07-09T14:04:16;30.90;57.20
8676;DHT22;4375;52.486;13.424;2023-07-09T14:06:43;30.90;56.90
8676;DHT22;4375;52.486;13.424;2023-07-09T14:09:12;30.90;57.20
8676;DHT22;4375;52.486;13.424;2023-07-09T14:11:46;30.90;57.00
8676;DHT22;4375;52.486;13.424;2023-07-09T14:14:23;30.80;56.50
8676;DHT22;4375;52.486;13.424;2023-07-09T14:16:50;30.90;56.50
8676;DHT22;4375;52.486;13.424;2023-07-09T14:19:22;30.90;56.20
8676;DHT22;4375;52.486;13.424;2023-07-09T14:21:48;30.90;56.60
8676;DHT22;4375;52.486;13.424;2023-07-09T14:24:26;30.80;56.80
8676;DHT22;4375;52.486;13.424;2023-07-09T14:26:55;30.70;56.90
8676;DHT22;4375;52.486;13.424;2023-07-09T14:29:21;30.70;56.80
8676;DHT22;4375;52.486;13.424;2023-07-09T14:31:47;30.70;56.60
8676;DHT22;4375;52.486;13.424;2023-07-09T14:36:44;30.60;56.80
8676;DHT22;4375;52.486;13.424;2023-07-09T14:39:10;30.60;57.00
8676;DHT22;4375;52.486;13.424;2023-07-09T14:41:37;30.60;57.00
8676;DHT22;4375;52.486;13.424;2023-07-09T14:44:03;30.60;56.80
8676;DHT22;4375;52.486;13.424;2023-07-09T14:46:35;30.60;56.60
8676;DHT22;4375;52.486;13.424;2023-07-09T14:49:00;30.60;56.80
8676;DHT22;4375;52.486;13.424;2023-07-09T14:51:26;30.60;56.50
8676;DHT22;4375;52.486;13.424;2023-07-09T14:53:52;30.70;56.90
8676;DHT22;4375;52.486;13.424;2023-07-09T14:56:20;30.70;56.70
8676;DHT22;4375;52.486;13.424;2023-07-09T14:58:46;30.70;56.80
8676;DHT22;4375;52.486;13.424;2023-07-09T15:01:13;30.80;56.40
8676;DHT22;4375;52.486;13.424;2023-07-09T15:03:40;30.90;57.00
8676;DHT22;4375;52.486;13.424;2023-07-09T15:06:06;30.80;56.50
8676;DHT22;4375;52.486;13.424;2023-07-09T15:08:32;30.90;56.60
8676;DHT22;4375;52.486;13.424;2023-07-09T15:10:58;31.00;56.40
8676;DHT22;4375;52.486;13.424;2023-07-09T15:13:33;31.10;57.20
8676;DHT22;4375;52.486;13.424;2023-07-09T15:16:03;31.20;56.60
8676;DHT22;4375;52.486;13.424;2023-07-09T15:18:30;31.20;56.50
8676;DHT22;4375;52.486;13.424;2023-07-09T15:20:58;31.10;56.80
8676;DHT22;4375;52.486;13.424;2023-07-09T15:23:24;31.10;56.70
8676;DHT22;4375;52.486;13.424;2023-07-09T15:25:51;31.20;56.60
8676;DHT22;4375;52.486;13.424;2023-07-09T15:28:17;31.10;56.70
8676;DHT22;4375;52.486;13.424;2023-07-09T15:30:43;31.00;56.30
8676;DHT22;4375;52.486;13.424;2023-07-09T15:33:16;30.90;56.70
8676;DHT22;4375;52.486;13.424;2023-07-09T15:35:44;30.90;57.40
8676;DHT22;4375;52.486;13.424;2023-07-09T15:38:31;30.90;57.00
8676;DHT22;4375;52.486;13.424;2023-07-09T15:40:57;30.90;57.10
8676;DHT22;4375;52.486;13.424;2023-07-09T15:43:24;30.90;57.00
8676;DHT22;4375;52.486;13.424;2023-07-09T15:45:51;30.80;57.10
8676;DHT22;4375;52.486;13.424;2023-07-09T15:50:58;30.80;57.00
8676;DHT22;4375;52.486;13.424;2023-07-09T15:53:25;30.80;56.80
8676;DHT22;4375;52.486;13.424;2023-07-09T15:55:57;30.80;57.00
8676;DHT22;4375;52.486;13.424;2023-07-09T15:58:41;30.80;56.70
8676;DHT22;4375;52.486;13.424;2023-07-09T16:01:11;30.70;56.70
8676;DHT22;4375;52.486;13.424;2023-07-09T16:03:37;30.60;56.20
8676;DHT22;4375;52.486;13.424;2023-07-09T16:06:03;30.60;56.50
8676;DHT22;4375;52.486;13.424;2023-07-09T16:08:29;30.60;56.70
8676;DHT22;4375;52.486;13.424;2023-07-09T16:10:54;30.50;56.80
8676;DHT22;4375;52.486;13.424;2023-07-09T16:13:23;30.60;56.80
8676;DHT22;4375;52.486;13.424;2023-07-09T16:15:49;30.60;56.80
8676;DHT22;4375;52.486;13.424;2023-07-09T16:18:16;30.50;57.20
8676;DHT22;4375;52.486;13.424;2023-07-09T16:20:42;30.60;57.50
8676;DHT22;4375;52.486;13.424;2023-07-09T16:23:15;30.50;57.60
8676;DHT22;4375;52.486;13.424;2023-07-09T16:25:41;30.50;57.60
8676;DHT22;4375;52.486;13.424;2023-07-09T16:28:12;30.60;57.80
8676;DHT22;4375;52.486;13.424;2023-07-09T16:30:38;30.60;57.90
8676;DHT22;4375;52.486;13.424;2023-07-09T16:33:04;30.60;57.70
8676;DHT22;4375;52.486;13.424;2023-07-09T16:35:29;30.50;57.40
8676;DHT22;4375;52.486;13.424;2023-07-09T16:37:56;30.50;57.50
8676;DHT22;4375;52.486;13.424;2023-07-09T16:40:29;30.40;57.70
8676;DHT22;4375;52.486;13.424;2023-07-09T16:43:00;30.40;57.50
8676;DHT22;4375;52.486;13.424;2023-07-09T16:45:29;30.30;57.60
8676;DHT22;4375;52.486;13.424;2023-07-09T16:47:55;30.30;57.30
8676;DHT22;4375;52.486;13.424;2023-07-09T16:50:23;30.30;57.50
8676;DHT22;4375;52.486;13.424;2023-07-09T16:52:50;30.20;57.30
8676;DHT22;4375;52.486;13.424;2023-07-09T16:55:19;30.20;57.10
8676;DHT22;4375;52.486;13.424;2023-07-09T16:57:55;30.10;57.30
8676;DHT22;4375;52.486;13.424;2023-07-09T17:00:25;30.10;57.40